Mariinsk, Russia
Current Conditions -  °F | °C
As of 3:00 AM on Saturday 20 Dec 2014 (Local Time) from UNEE Reporting Station
Haze Haze  
Wind Chill: -4°   Ceiling: Unl
Heat Index:   Visibility: 1.4mi
Dew Point:   Wind: 4mph
Humidity: 100%   Direction: 150°SSE
Pressure: 30.56"   Gusts: NA
Location:  56.21°N, 87.75°E
Report Text: UNEE 192000Z 15002MPS 2300 BR SCT066 M15/M15 Q1035 TEMPO 0400FZFG RMK QFE753 23821045
Loading
Personal Weather Stations






























Interactive Weather Map New forecast layout! Learn more

10-Day Weather Forecast

Advertisements
Track Severe Weather on mobile